Terminal Aerodrome Forecast
Issued by NWS Blacksburg, VA

Current Version | Previous Version | Graphics & Text | Print | Product List | Glossary On
Versions: 1 2 3 4 5 6 7 8 9 10 11 12 13 14 15 16 17 18 19 20 21 22 23 24 25 26 27 28 29 30 31 32 33 34 35 36 37 38 39
564
FTUS41 KRNK 222155 AAB
TAFBLF
TAF AMD
KBLF 222155Z 2222/2318 VRB03KT P6SM BKN015 OVC035
      TEMPO 2222/2224 5SM -DZ BR
     FM230500 VRB04KT 6SM BR BKN035
     FM231600 20004KT P6SM BKN035=

USA.gov is the U.S. government's official web portal to all federal, state and local government web resources and services.